ADDS METAR Data INFO
IDs: Format: Raw Decoded Include TAF

Data at: 0313 UTC 20 Jul 2018

KXSA 200257Z AUTO 00000KT 10SM CLR 19/18 A3011 RMK AO2
KXSA 200237Z AUTO 00000KT 10SM CLR 19/18 A3011 RMK AO2
KXSA 200218Z AUTO 00000KT 10SM CLR 21/18 A3010 RMK AO2
KXSA 200157Z AUTO 00000KT 10SM CLR 22/18 A3010 RMK AO2
KXSA 200138Z AUTO 00000KT 10SM CLR 21/18 A3009 RMK AO2
KXSA 200117Z AUTO 00000KT 10SM CLR 22/18 A3008 RMK AO2
KXSA 200057Z AUTO 00000KT 10SM CLR 23/18 A3008 RMK AO2
KXSA 200037Z AUTO 00000KT 10SM CLR 24/17 A3007 RMK AO2
KXSA 200018Z AUTO 10004KT 10SM CLR 25/17 A3007 RMK AO2
KXSA 192358Z AUTO 10003KT 10SM CLR 27/17 A3007 RMK AO2
KXSA 192318Z AUTO 09003KT 10SM CLR 28/17 A3006 RMK AO2
KXSA 192259Z AUTO 09004KT 10SM CLR 28/16 A3006 RMK AO2
KXSA 192238Z AUTO 08007KT 10SM CLR 30/15 A3005 RMK AO2
KXSA 192218Z AUTO 07004KT 10SM CLR 30/14 A3006 RMK AO2
KXSA 192158Z AUTO 10007KT 10SM CLR 31/15 A3005 RMK AO2
KXSA 192137Z AUTO 09004KT 10SM CLR 31/14 A3005 RMK AO2
KXSA 192118Z AUTO 05007KT 10SM CLR 31/14 A3006 RMK AO2
KXSA 192057Z AUTO 05005KT 10SM SCT070 31/14 A3006 RMK AO2
KXSA 192037Z AUTO 05006KT 10SM CLR 32/14 A3007 RMK AO2
KXSA 192018Z AUTO 00000KT 10SM SCT070 31/14 A3007 RMK AO2
KXSA 191957Z AUTO 13005KT 10SM SCT070 32/14 A3007 RMK AO2
KXSA 191938Z AUTO 08006KT 10SM CLR 30/13 A3007 RMK AO2
KXSA 191857Z AUTO 05005KT 10SM CLR 31/13 A3008 RMK AO2
KXSA 191837Z AUTO 01004KT 10SM CLR 31/13 A3008 RMK AO2
KXSA 191818Z AUTO 08009KT 10SM CLR 31/14 A3008 RMK AO2
KXSA 191757Z AUTO 08004KT 10SM SCT065 31/14 A3009 RMK AO2
KXSA 191738Z AUTO 02004KT 10SM SCT080 30/14 A3010 RMK AO2
KXSA 191718Z AUTO 02004KT 10SM SCT080 29/14 A3010 RMK AO2
KXSA 191657Z AUTO 04004KT 10SM SCT070 SCT085 29/14 A3010 RMK AO2
KXSA 191637Z AUTO 03003KT 10SM SCT060 BKN070 BKN085 28/15 A3010 RMK AO2
KXSA 191618Z AUTO 04004KT 10SM SCT060 SCT070 29/16 A3010 RMK AO2
KXSA 191557Z AUTO 06006KT 10SM CLR 30/15 A3010 RMK AO2
KXSA 191537Z AUTO 03004KT 10SM CLR 30/16 A3010 RMK AO2
KXSA 191517Z AUTO 07005KT 10SM CLR 30/16 A3010 RMK AO2
KXSA 191457Z AUTO 02008KT 10SM CLR 29/18 A3010 RMK AO2
KXSA 191437Z AUTO 02005KT 10SM CLR 29/18 A3010 RMK AO2
KXSA 191417Z AUTO 04008KT 10SM CLR 28/19 A3010 RMK AO2
KXSA 191358Z AUTO 02006KT 10SM CLR 28/21 A3009 RMK AO2
KXSA 191338Z AUTO 05004KT 10SM CLR 27/21 A3009 RMK AO2
KXSA 191317Z AUTO 06006KT 10SM CLR 27/21 A3009 RMK AO2
KXSA 191258Z AUTO 02005KT 10SM CLR 26/20 A3008 RMK AO2
KXSA 191237Z AUTO 03004KT 10SM SCT001 25/20 A3008 RMK AO2
KXSA 191218Z AUTO 00000KT 5SM HZ SCT001 24/20 A3007 RMK AO2
KXSA 191158Z AUTO 00000KT 10SM SCT001 23/19 A3007 RMK AO2
KXSA 191137Z AUTO 00000KT 10SM SCT002 21/19 A3006 RMK AO2
KXSA 191117Z AUTO 00000KT 10SM SCT002 19/19 A3006 RMK AO2
KXSA 191057Z AUTO 00000KT 10SM CLR 18/17 A3005 RMK AO2
KXSA 191037Z AUTO 00000KT 10SM CLR 17/17 A3005 RMK AO2
KXSA 190958Z AUTO 00000KT 7SM CLR 16/16 A3004 RMK AO2
KXSA 190938Z AUTO 00000KT 10SM CLR 17/17 A3003 RMK AO2
KXSA 190857Z AUTO 00000KT 10SM CLR 17/17 A3003 RMK AO2
KXSA 190837Z AUTO 00000KT 10SM CLR 18/17 A3003 RMK AO2
KXSA 190817Z AUTO 00000KT 10SM CLR 18/17 A3003 RMK AO2
KXSA 190757Z AUTO 00000KT 10SM CLR 18/17 A3002 RMK AO2
KXSA 190738Z AUTO 00000KT 10SM CLR 17/17 A3002 RMK AO2
KXSA 190717Z AUTO 10005KT 10SM CLR 17/17 A3003 RMK AO2
KXSA 190657Z AUTO 00000KT 10SM CLR 17/17 A3002 RMK AO2
KXSA 190638Z AUTO 00000KT 10SM CLR 17/17 A3002 RMK AO2
KXSA 190617Z AUTO 00000KT 10SM CLR 18/17 A3002 RMK AO2
KXSA 190557Z AUTO 00000KT 10SM CLR 18/17 A3002 RMK AO2
KXSA 190537Z AUTO 00000KT 10SM CLR 18/17 A3002 RMK AO2
KXSA 190517Z AUTO 00000KT 10SM CLR 18/17 A3001 RMK AO2
KXSA 190458Z AUTO 00000KT 10SM CLR 18/17 A3001 RMK AO2
KXSA 190438Z AUTO 00000KT 10SM CLR 19/17 A3000 RMK AO2
KXSA 190418Z AUTO 00000KT 10SM CLR 21/17 A3000 RMK AO2
KXSA 190357Z AUTO 00000KT 10SM CLR 20/17 A3000 RMK AO2
KXSA 190338Z AUTO 00000KT 10SM CLR 20/17 A3000 RMK AO2
KXSA 190317Z AUTO 00000KT 10SM CLR 20/18 A2999 RMK AO2
KXSA 190257Z AUTO 27003KT 10SM CLR 21/17 A2999 RMK AO2
KXSA 190237Z AUTO 00000KT 10SM CLR 20/18 A2999 RMK AO2
KXSA 190218Z AUTO 25003KT 10SM CLR 19/17 A2999 RMK AO2
KXSA 190157Z AUTO 00000KT 10SM CLR 19/17 A2998 RMK AO2
KXSA 190138Z AUTO 00000KT 10SM CLR 20/18 A2998 RMK AO2
KXSA 190118Z AUTO 00000KT 10SM CLR 21/18 A2997 RMK AO2
KXSA 190057Z AUTO 00000KT 10SM CLR 21/18 A2997 RMK AO2
KXSA 190037Z AUTO 00000KT 10SM CLR 22/19 A2997 RMK AO2
KXSA 190018Z AUTO 00000KT 10SM CLR 23/18 A2997 RMK AO2
KXSA 182359Z AUTO 00000KT 10SM CLR 25/19 A2996 RMK AO2
KXSA 182337Z AUTO 00000KT 10SM CLR 27/18 A2996 RMK AO2
KXSA 182258Z AUTO 00000KT 10SM CLR 29/15 A2995 RMK AO2
KXSA 182239Z AUTO 30003KT 10SM CLR 29/15 A2995 RMK AO2
KXSA 182157Z AUTO 30005KT 10SM CLR 29/14 A2995 RMK AO2
KXSA 182138Z AUTO 32006KT 10SM CLR 29/14 A2995 RMK AO2
KXSA 182117Z AUTO 31006KT 10SM SCT060 29/14 A2995 RMK AO2
KXSA 182058Z AUTO 33006KT 10SM SCT060 30/15 A2995 RMK AO2
KXSA 182039Z AUTO 32004KT 10SM SCT060 30/15 A2995 RMK AO2
KXSA 182018Z AUTO 30006KT 10SM SCT060 30/16 A2995 RMK AO2
KXSA 181957Z AUTO 29006KT 10SM CLR 30/15 A2995 RMK AO2
KXSA 181937Z AUTO 32006KT 10SM CLR 31/16 A2995 RMK AO2
KXSA 181917Z AUTO 30007KT 10SM SCT060 30/16 A2996 RMK AO2
KXSA 181857Z AUTO 32004KT 10SM SCT060 30/16 A2996 RMK AO2
KXSA 181837Z AUTO 31007KT 10SM SCT060 30/16 A2996 RMK AO2
KXSA 181817Z AUTO 32004KT 10SM SCT050 29/16 A2996 RMK AO2
KXSA 181757Z AUTO 33005KT 10SM SCT050 29/16 A2996 RMK AO2
KXSA 181737Z AUTO 35007KT 10SM SCT050 29/16 A2997 RMK AO2
KXSA 181718Z AUTO 00000KT 10SM SCT050 28/16 A2997 RMK AO2
KXSA 181657Z AUTO 35003KT 10SM SCT044 28/16 A2997 RMK AO2
KXSA 181637Z AUTO 00000KT 10SM SCT044 28/17 A2998 RMK AO2
KXSA 181617Z AUTO 34004KT 10SM CLR 28/17 A2997 RMK AO2
KXSA 181557Z AUTO 32005KT 10SM SCT040 28/17 A2997 RMK AO2
KXSA 181537Z AUTO 36008KT 10SM SCT040 28/18 A2997 RMK AO2
KXSA 181517Z AUTO 35006KT 10SM CLR 27/17 A2997 RMK AO2